El Paso, TX (79924)

1:49 AM MDT on August 30, 2014 (GMT -0600)
Bobs Place Northeast | Change Station
CLOSE
Current Station
Personal Weather Station
Location: El Paso, TX
Elevation: 3973 ft
Nearby Weather Stations

Elev 3973 ft 31.91 °N, 106.42 °W | Updated 3 seconds ago

Clear
Clear
78.3 °F
Feels Like 79 °F
N
0.0
Wind Variable Wind from SSW
Gusts 0.0 mph

Today
High -- | Low -- °F
--% Chance of Precip.
Yesterday
High -- | Low -- °F
Precip. -- in
6:39 AM 7:32 PM
Waxing Crescent, 20% visible
Pressure 29.78 in
Visibility 10.0 miles
Clouds Few 6000 ft
Few 10000 ft
Heat Index 79 °F
Dew Point 50 °F
Humidity 37%
Rainfall 0.00 in
Snow Depth Not available.
UV 0 out of 12
Pollen 9.20 out of 12
Air Quality Not available.
Flu Activity Not available.
METAR KELP 300651Z 11010KT 10SM FEW060 FEW100 27/09 A3002 RMK AO2 SLP083 T02720089 403440211

More Conditions Fewer Conditions

Pressure 29.78 in
Visibility 10.0 miles
Clouds Few 6000 ft
Few 10000 ft
Heat Index 79 °F
Dew Point 50 °F
Humidity 37%
Rainfall 0.00 in
Snow Depth Not available.
UV 0 out of 12
Pollen 9.20 out of 12
Air Quality Not available.
Flu Activity Not available.
METAR KELP 300651Z 11010KT 10SM FEW060 FEW100 27/09 A3002 RMK AO2 SLP083 T02720089 403440211

More Conditions Fewer Conditions

10-Day Weather Forecast

Almanac

Astronomy

Aug. 30, 2014 Rise Set
Actual Time 6:39 AM MDT 7:32 PM MDT
Civil Twilight 6:14 AM MDT 7:56 PM MDT
Nautical Twilight 5:45 AM MDT 8:26 PM MDT
Astronomical Twilight 5:15 AM MDT 8:56 PM MDT
Moon 11:10 AM MDT 10:28 PM MDT
Length of Visible Light 13h 42m
Length of Day
12h 52m
Tomorrow will be 1m 52s shorter.
Waxing Crescent, 20% of the Moon is Illuminated
Today
Waxing Crescent
Sep 2
First Quarter
Sep 8
Full
Sep 15
Last Quarter
Sep 24
New

Today's Extremes

State Highs State Lows

Community

WunderPhotos

Upload Photos

1,748,465 photos uploaded!

Nearby

Snow Depth

Station Depth Elevation
No new snow has been reported.

Earthquake Activity

City Distance Mag. Time & Date
No recent earthquake activity has been reported nearby.
Minimum magnitude displayed is 2.5.

Coastal Water Temperatures

Place Temperature
No Stations Reporting

Nearby Weather Stations